Time;durP1;ratioP1;P1;durP2;ratioP2;P2;SDS_P1;SDS_P2;PMS_P1;PMS_P2;Temp;Humidity;BMP_temperature;BMP_pressure;BME280_temperature;BME280_humidity;BME280_pressure;Samples;Min_cycle;Max_cycle;Signal;HPM_P1;HPM_P2
2023/05/04 00:01:44;;;;;;;8.37;7.50;;;11.20;99.90;;;;;;5056534;28;20189;-46
2023/05/04 00:04:09;;;;;;;9.20;7.27;;;11.20;99.90;;;;;;5057029;28;20267;-44
2023/05/04 00:06:35;;;;;;;7.80;6.80;;;11.20;99.90;;;;;;5057411;28;20189;-45
2023/05/04 00:09:01;;;;;;;7.70;6.73;;;11.10;99.90;;;;;;5057314;28;20634;-45
2023/05/04 00:11:27;;;;;;;8.57;7.77;;;11.10;99.90;;;;;;5057658;28;20192;-45
2023/05/04 00:13:53;;;;;;;8.93;7.60;;;11.10;99.90;;;;;;5057563;28;20432;-47
2023/05/04 00:16:18;;;;;;;7.10;6.40;;;11.10;99.90;;;;;;5057572;28;20189;-44
2023/05/04 00:18:44;;;;;;;12.00;8.07;;;11.00;99.90;;;;;;5057405;28;20583;-46
2023/05/04 00:21:10;;;;;;;8.30;7.37;;;11.00;1.00;;;;;;5055591;28;20449;-44
2023/05/04 00:23:35;;;;;;;9.43;7.67;;;11.00;1.00;;;;;;5057015;28;20197;-46
2023/05/04 00:26:02;;;;;;;8.73;7.47;;;11.10;99.90;;;;;;5057222;28;20181;-46
2023/05/04 00:28:27;;;;;;;8.17;7.37;;;11.10;1.00;;;;;;5057321;28;20508;-44
2023/05/04 00:30:53;;;;;;;8.80;7.67;;;11.00;1.00;;;;;;5057040;28;20424;-46
2023/05/04 00:33:19;;;;;;;11.53;8.70;;;10.90;1.00;;;;;;5056493;28;20552;-46
2023/05/04 00:35:45;;;;;;;10.83;7.17;;;10.90;1.00;;;;;;5056260;28;20417;-44
2023/05/04 00:38:12;;;;;;;8.17;7.37;;;10.90;1.00;;;;;;5056744;28;20511;-45
2023/05/04 00:40:38;;;;;;;8.83;7.50;;;10.90;1.00;;;;;;5057037;28;20265;-45
2023/05/04 00:43:04;;;;;;;8.73;7.83;;;10.90;1.00;;;;;;5057152;28;20752;-44
2023/05/04 00:45:31;;;;;;;9.63;8.10;;;10.90;1.00;;;;;;5056983;28;20475;-44
2023/05/04 00:47:57;;;;;;;8.23;7.50;;;10.80;1.00;;;;;;5056633;28;20515;-45
2023/05/04 00:50:23;;;;;;;11.43;9.27;;;10.80;1.00;;;;;;5057552;28;20454;-47
2023/05/04 00:52:50;;;;;;;12.07;8.13;;;10.80;1.00;;;;;;5056586;28;20489;-47
2023/05/04 00:55:15;;;;;;;9.23;8.30;;;10.70;1.00;;;;;;5056791;28;20678;-46
2023/05/04 00:57:41;;;;;;;9.07;8.10;;;10.70;2.90;;;;;;5056615;28;20451;-45
2023/05/04 01:00:12;;;;;;;8.93;8.23;;;10.70;1.70;;;;;;5056672;28;20186;-45
2023/05/04 01:02:39;;;;;;;8.83;7.93;;;10.60;43.20;;;;;;5056477;28;20227;-45
2023/05/04 01:05:05;;;;;;;9.13;7.93;;;10.60;99.90;;;;;;5056697;28;20447;-45
2023/05/04 01:07:38;;;;;;;11.03;8.90;;;10.60;99.90;;;;;;5056296;28;20424;-45
2023/05/04 01:10:11;;;;;;;11.60;10.03;;;10.60;99.90;;;;;;5056471;28;20562;-48
2023/05/04 01:12:43;;;;;;;10.13;8.87;;;10.60;99.90;;;;;;5056562;28;20408;-46
2023/05/04 01:15:10;;;;;;;8.63;7.83;;;10.60;99.90;;;;;;5056533;28;20477;-47
2023/05/04 01:17:36;;;;;;;11.07;9.23;;;10.60;99.90;;;;;;5055434;28;20470;-44
2023/05/04 01:20:02;;;;;;;10.03;9.03;;;10.60;99.90;;;;;;5056551;28;20743;-45
2023/05/04 01:22:28;;;;;;;11.10;9.77;;;10.60;99.90;;;;;;5056824;28;20208;-44
2023/05/04 01:24:54;;;;;;;9.20;8.30;;;10.60;99.90;;;;;;5056538;28;20452;-44
2023/05/04 01:27:35;;;;;;;11.20;9.50;;;10.60;99.90;;;;;;5039086;28;20243;-45
2023/05/04 01:30:12;;;;;;;9.73;8.70;;;10.50;1.00;;;;;;5054950;28;20522;-46
2023/05/04 01:32:38;;;;;;;10.70;9.60;;;10.50;1.00;;;;;;5054920;28;20424;-48
2023/05/04 01:35:05;;;;;;;11.47;9.10;;;10.50;1.00;;;;;;5056052;28;20420;-46
2023/05/04 01:37:31;;;;;;;12.27;9.40;;;10.40;1.00;;;;;;5056976;28;20428;-45
2023/05/04 01:39:57;;;;;;;10.53;9.43;;;10.40;1.00;;;;;;5055483;28;20428;-45
2023/05/04 01:42:22;;;;;;;12.33;10.00;;;10.40;97.30;;;;;;5055891;28;20800;-46
2023/05/04 01:44:48;;;;;;;11.43;10.07;;;10.30;99.90;;;;;;5055464;28;20197;-46
2023/05/04 01:47:14;;;;;;;10.80;9.80;;;10.30;99.90;;;;;;5055600;28;20201;-44
2023/05/04 01:49:39;;;;;;;12.57;10.27;;;10.30;99.90;;;;;;5057870;28;20181;-49
2023/05/04 01:52:05;;;;;;;12.27;9.57;;;10.20;1.00;;;;;;5062885;28;20655;-45
2023/05/04 01:54:31;;;;;;;12.43;10.30;;;10.20;1.00;;;;;;5063293;28;20490;-45
2023/05/04 01:56:56;;;;;;;10.83;9.80;;;10.30;1.00;;;;;;5063690;28;20185;-45
2023/05/04 01:59:22;;;;;;;13.30;12.00;;;10.20;1.00;;;;;;5062682;28;20224;-45
2023/05/04 02:01:48;;;;;;;13.03;11.10;;;10.10;99.90;;;;;;5063379;28;20177;-47
2023/05/04 02:04:13;;;;;;;12.63;11.43;;;10.10;99.90;;;;;;5063183;28;20239;-47
2023/05/04 02:06:39;;;;;;;12.30;11.00;;;10.10;99.90;;;;;;5063051;28;20205;-48
2023/05/04 02:09:05;;;;;;;14.60;11.30;;;10.10;1.00;;;;;;5063000;28;20173;-46
2023/05/04 02:11:30;;;;;;;14.03;12.03;;;10.10;1.00;;;;;;5062433;28;20284;-45
2023/05/04 02:13:56;;;;;;;13.63;12.30;;;10.10;1.00;;;;;;5063110;28;20177;-46
2023/05/04 02:16:22;;;;;;;13.50;12.20;;;10.10;73.90;;;;;;5045273;28;20177;-46
2023/05/04 02:18:47;;;;;;;13.87;12.43;;;10.00;99.90;;;;;;5063093;28;20579;-46
2023/05/04 02:21:13;;;;;;;13.60;11.13;;;10.00;99.90;;;;;;5062310;28;20188;-45
2023/05/04 02:23:39;;;;;;;13.40;11.97;;;9.90;1.00;;;;;;5063161;28;20629;-46
2023/05/04 02:26:05;;;;;;;15.40;13.57;;;9.90;1.00;;;;;;5063084;28;20428;-48
2023/05/04 02:28:31;;;;;;;14.93;12.50;;;9.80;23.90;;;;;;5062568;28;20312;-45
2023/05/04 02:30:56;;;;;;;14.27;12.87;;;9.80;99.90;;;;;;5063386;28;20771;-47
2023/05/04 02:33:22;;;;;;;14.13;12.60;;;9.80;99.90;;;;;;5061927;28;20482;-47
2023/05/04 02:35:48;;;;;;;13.97;12.57;;;9.80;99.90;;;;;;5062482;28;20177;-46
2023/05/04 02:38:14;;;;;;;14.50;13.07;;;9.80;99.90;;;;;;5063437;28;20590;-46
2023/05/04 02:40:40;;;;;;;16.20;14.43;;;9.80;1.00;;;;;;5062899;28;20428;-48
2023/05/04 02:43:06;;;;;;;14.53;13.00;;;9.80;1.00;;;;;;5063096;28;20272;-46
2023/05/04 02:45:31;;;;;;;15.50;13.90;;;9.80;1.00;;;;;;5062806;28;20248;-46
2023/05/04 02:47:57;;;;;;;15.63;14.10;;;9.80;89.50;;;;;;5063061;28;20177;-45
2023/05/04 02:50:23;;;;;;;16.70;15.00;;;9.80;99.90;;;;;;5062183;28;20169;-45
2023/05/04 02:52:48;;;;;;;16.10;14.43;;;9.80;99.90;;;;;;5063144;28;20269;-45
2023/05/04 02:55:15;;;;;;;16.47;14.87;;;9.70;99.90;;;;;;5063093;28;20173;-45
2023/05/04 02:57:41;;;;;;;16.40;14.80;;;9.70;99.90;;;;;;5061948;28;20563;-45
2023/05/04 03:00:10;;;;;;;16.90;15.20;;;9.70;99.90;;;;;;5062465;28;20507;-45
2023/05/04 03:02:35;;;;;;;15.83;14.33;;;9.70;99.90;;;;;;5058297;28;20204;-44
2023/05/04 03:05:01;;;;;;;16.57;14.17;;;9.70;99.90;;;;;;5057827;28;20455;-47
2023/05/04 03:07:27;;;;;;;16.67;15.00;;;9.70;99.90;;;;;;5058275;28;20170;-45
2023/05/04 03:09:53;;;;;;;15.30;13.83;;;9.70;99.90;;;;;;5058202;28;20419;-44
2023/05/04 03:12:18;;;;;;;15.00;13.50;;;9.60;1.00;;;;;;5058588;28;20252;-44
2023/05/04 03:14:45;;;;;;;15.07;13.60;;;9.50;1.00;;;;;;5058862;28;20710;-47
2023/05/04 03:17:10;;;;;;;13.37;11.97;;;9.40;1.00;;;;;;5058669;28;20201;-45
2023/05/04 03:19:36;;;;;;;12.67;11.40;;;9.40;99.90;;;;;;5059503;28;20455;-45
2023/05/04 03:22:08;;;;;;;13.70;12.30;;;9.30;99.90;;;;;;5059749;28;20497;-44
2023/05/04 03:24:35;;;;;;;15.40;11.47;;;9.30;99.90;;;;;;5058085;28;20567;-45
2023/05/04 03:27:01;;;;;;;13.70;12.30;;;9.20;99.90;;;;;;5059382;28;20756;-44
2023/05/04 03:29:27;;;;;;;12.23;10.93;;;9.10;99.90;;;;;;5059212;28;20460;-45
2023/05/04 03:31:52;;;;;;;13.07;11.77;;;9.10;1.00;;;;;;5059674;28;20280;-45
2023/05/04 03:34:20;;;;;;;12.63;10.80;;;9.00;1.00;;;;;;5058771;28;20182;-44
2023/05/04 03:36:47;;;;;;;12.97;11.67;;;9.00;1.00;;;;;;5058730;28;20181;-47
2023/05/04 03:39:13;;;;;;;13.30;11.90;;;8.90;1.00;;;;;;5057200;28;20432;-46
2023/05/04 03:41:39;;;;;;;14.47;13.07;;;8.90;1.00;;;;;;5056985;28;20419;-45
2023/05/04 03:44:05;;;;;;;15.07;13.27;;;8.80;38.90;;;;;;5058248;28;20463;-46
2023/05/04 03:46:31;;;;;;;14.07;12.53;;;8.80;99.90;;;;;;5056814;28;20177;-46
2023/05/04 03:48:56;;;;;;;14.47;12.93;;;8.80;99.90;;;;;;5057184;28;20420;-47
2023/05/04 03:51:22;;;;;;;16.20;14.63;;;8.70;99.90;;;;;;5055852;28;20276;-46
2023/05/04 03:53:48;;;;;;;15.37;13.87;;;8.70;99.90;;;;;;5055544;28;20277;-45
2023/05/04 03:56:13;;;;;;;14.80;12.80;;;8.70;99.90;;;;;;5055717;28;20180;-44
2023/05/04 03:58:39;;;;;;;15.63;14.13;;;8.70;99.90;;;;;;5055006;28;20229;-44
2023/05/04 04:01:05;;;;;;;17.70;13.20;;;8.60;1.00;;;;;;5056229;28;20236;-45
2023/05/04 04:03:31;;;;;;;15.87;14.17;;;8.60;1.00;;;;;;5056157;28;20427;-44
2023/05/04 04:05:57;;;;;;;18.30;12.50;;;8.50;1.00;;;;;;5056361;28;20425;-44
2023/05/04 04:08:23;;;;;;;15.70;13.63;;;8.50;1.00;;;;;;5057901;28;20420;-44
2023/05/04 04:10:49;;;;;;;16.10;14.40;;;8.50;1.00;;;;;;5057390;28;20431;-45
2023/05/04 04:13:14;;;;;;;15.53;13.80;;;8.50;1.00;;;;;;5057130;28;20182;-47
2023/05/04 04:15:43;;;;;;;15.00;13.50;;;8.40;1.00;;;;;;5057673;28;20260;-46
2023/05/04 04:18:09;;;;;;;14.67;13.17;;;8.40;1.00;;;;;;5057722;28;20193;-44
2023/05/04 04:20:35;;;;;;;16.93;14.00;;;8.40;1.00;;;;;;5055046;28;20424;-45
2023/05/04 04:23:00;;;;;;;15.00;13.50;;;8.40;1.00;;;;;;5056033;28;20428;-45
2023/05/04 04:25:26;;;;;;;16.37;12.93;;;8.40;1.00;;;;;;5055471;28;20267;-44
2023/05/04 04:27:52;;;;;;;16.60;14.50;;;8.40;1.00;;;;;;5055116;28;20207;-45
2023/05/04 04:30:18;;;;;;;16.30;14.50;;;8.40;1.00;;;;;;5055476;28;20475;-45
2023/05/04 04:32:44;;;;;;;16.87;14.17;;;8.40;1.00;;;;;;5055502;28;20173;-46
2023/05/04 04:35:10;;;;;;;15.83;13.80;;;8.40;1.00;;;;;;5056344;28;20448;-45
2023/05/04 04:37:35;;;;;;;19.90;17.80;;;8.40;17.90;;;;;;5055003;28;20440;-45
2023/05/04 04:40:02;;;;;;;18.40;16.40;;;8.50;99.90;;;;;;5054259;28;20193;-46
2023/05/04 04:42:28;;;;;;;18.23;16.00;;;8.50;99.90;;;;;;5054953;28;20335;-45
2023/05/04 04:44:53;;;;;;;18.50;16.60;;;8.60;99.90;;;;;;5055609;28;20574;-44
2023/05/04 04:47:19;;;;;;;20.73;18.63;;;8.60;99.90;;;;;;5055464;28;20178;-49
2023/05/04 04:49:45;;;;;;;19.10;16.77;;;8.70;99.90;;;;;;5055958;28;20355;-46
2023/05/04 04:52:10;;;;;;;19.97;17.87;;;8.70;99.90;;;;;;5055258;28;20185;-44
2023/05/04 04:54:36;;;;;;;17.83;16.03;;;8.80;99.90;;;;;;5052519;28;20296;-48
2023/05/04 04:57:02;;;;;;;20.50;17.77;;;8.80;99.90;;;;;;5044726;28;20183;-45
2023/05/04 04:59:28;;;;;;;22.30;19.63;;;8.90;99.90;;;;;;5043196;28;20572;-44
2023/05/04 05:01:56;;;;;;;20.27;17.80;;;9.10;99.90;;;;;;5052059;28;20428;-45
2023/05/04 05:04:22;;;;;;;18.70;16.70;;;9.20;99.90;;;;;;5055633;28;20460;-44
2023/05/04 05:06:48;;;;;;;16.57;14.77;;;9.30;99.90;;;;;;5054267;28;20427;-44
2023/05/04 05:09:14;;;;;;;19.90;17.90;;;9.30;38.20;;;;;;5051757;28;20527;-45
2023/05/04 05:11:40;;;;;;;22.77;20.43;;;9.40;46.30;;;;;;5051588;28;20806;-45
2023/05/04 05:14:05;;;;;;;19.97;17.97;;;9.50;99.90;;;;;;5051572;28;20430;-44
2023/05/04 05:16:31;;;;;;;21.40;19.47;;;9.70;99.90;;;;;;5050806;28;20280;-44
2023/05/04 05:18:57;;;;;;;21.37;18.97;;;9.70;84.40;;;;;;5051986;28;20362;-43
2023/05/04 05:21:22;;;;;;;21.60;19.30;;;9.80;25.00;;;;;;5050950;28;20185;-44
2023/05/04 05:23:48;;;;;;;20.53;18.37;;;10.00;1.00;;;;;;5052346;28;20201;-44
2023/05/04 05:26:14;;;;;;;21.13;18.43;;;10.10;1.00;;;;;;5051204;28;20178;-43
2023/05/04 05:28:40;;;;;;;22.43;19.20;;;10.20;99.90;;;;;;5049570;28;20242;-44
2023/05/04 05:31:05;;;;;;;19.60;17.70;;;10.40;99.90;;;;;;5051807;28;20209;-44
2023/05/04 05:33:31;;;;;;;22.27;20.10;;;10.50;91.40;;;;;;5051895;28;20474;-43
2023/05/04 05:35:57;;;;;;;19.50;17.50;;;10.60;1.00;;;;;;5053150;28;20560;-46
2023/05/04 05:38:23;;;;;;;22.00;19.70;;;10.70;1.00;;;;;;5054199;28;20430;-49
2023/05/04 05:40:48;;;;;;;19.37;17.37;;;10.80;99.90;;;;;;5053659;28;20260;-43
2023/05/04 05:43:14;;;;;;;19.03;17.03;;;11.00;1.00;;;;;;5052733;28;20176;-44
2023/05/04 05:45:40;;;;;;;19.63;17.53;;;11.10;1.00;;;;;;5052143;28;20578;-44
2023/05/04 05:48:06;;;;;;;18.03;16.23;;;11.20;1.00;;;;;;5053442;28;20428;-44
2023/05/04 05:50:31;;;;;;;18.97;17.13;;;11.30;91.20;;;;;;5052538;28;20178;-46
2023/05/04 05:52:57;;;;;;;18.50;16.60;;;11.40;30.30;;;;;;5052365;28;20185;-44
2023/05/04 05:55:23;;;;;;;18.57;16.67;;;11.60;1.00;;;;;;5052121;28;20485;-46
2023/05/04 05:57:48;;;;;;;18.43;16.63;;;11.70;99.90;;;;;;5052154;28;20570;-45
2023/05/04 06:00:15;;;;;;;18.27;16.37;;;11.90;1.00;;;;;;5053085;28;20746;-46
2023/05/04 06:02:41;;;;;;;17.17;15.53;;;12.00;99.90;;;;;;5051577;28;20200;-44
2023/05/04 06:05:13;;;;;;;18.63;16.63;;;12.20;1.00;;;;;;5053540;28;20479;-45
2023/05/04 06:07:39;;;;;;;18.23;16.10;;;12.40;1.00;;;;;;5053528;28;20486;-44
2023/05/04 06:10:05;;;;;;;16.73;15.23;;;12.50;99.90;;;;;;5052977;28;20416;-43
2023/05/04 06:12:31;;;;;;;16.20;14.60;;;12.70;47.30;;;;;;5052625;28;20181;-44
2023/05/04 06:14:57;;;;;;;17.90;16.10;;;12.80;1.00;;;;;;5052211;28;20426;-45
2023/05/04 06:17:23;;;;;;;16.57;14.67;;;13.00;1.00;;;;;;5053123;28;20247;-46
2023/05/04 06:19:50;;;;;;;17.20;15.50;;;13.10;99.90;;;;;;5053339;28;20186;-44
2023/05/04 06:22:16;;;;;;;16.10;14.50;;;13.20;99.90;;;;;;5053570;28;20761;-45
2023/05/04 06:24:41;;;;;;;14.37;13.00;;;13.40;1.00;;;;;;5052536;28;20481;-46
2023/05/04 06:27:07;;;;;;;15.20;13.80;;;13.50;1.00;;;;;;5049202;28;20534;-44
2023/05/04 06:29:33;;;;;;;16.23;14.63;;;13.70;1.00;;;;;;5051933;28;20313;-44
2023/05/04 06:31:59;;;;;;;16.47;14.70;;;13.80;1.00;;;;;;5052159;28;20193;-45
2023/05/04 06:34:25;;;;;;;17.17;15.50;;;14.00;1.00;;;;;;5050162;28;20189;-45
2023/05/04 06:36:51;;;;;;;13.97;12.77;;;14.20;99.90;;;;;;5053393;28;20424;-46
2023/05/04 06:39:16;;;;;;;12.70;11.57;;;14.30;99.90;;;;;;5056006;28;20178;-44
2023/05/04 06:41:42;;;;;;;13.80;12.50;;;14.50;99.90;;;;;;5056364;28;20280;-44
2023/05/04 06:44:08;;;;;;;13.07;11.67;;;14.60;99.90;;;;;;5056992;28;20205;-46
2023/05/04 06:46:35;;;;;;;12.70;11.53;;;14.70;99.90;;;;;;5057992;28;20544;-44
2023/05/04 06:49:03;;;;;;;11.50;10.40;;;14.90;99.90;;;;;;5055751;28;20180;-47
2023/05/04 06:51:29;;;;;;;12.60;11.43;;;15.00;94.50;;;;;;5056282;28;20838;-49
2023/05/04 06:53:54;;;;;;;12.23;11.13;;;15.10;28.40;;;;;;5055900;28;20424;-44
2023/05/04 06:56:21;;;;;;;13.20;11.83;;;15.20;26.90;;;;;;5054825;28;20667;-46
2023/05/04 06:58:46;;;;;;;11.93;10.77;;;15.20;13.00;;;;;;5056001;28;20251;-47
2023/05/04 07:01:12;;;;;;;10.87;9.87;;;15.30;12.50;;;;;;5053159;28;20420;-48
2023/05/04 07:03:38;;;;;;;10.10;9.10;;;15.40;24.30;;;;;;5055390;28;20182;-45
2023/05/04 07:06:03;;;;;;;10.70;9.70;;;15.50;3.30;;;;;;5052270;28;20173;-45
2023/05/04 07:08:30;;;;;;;10.97;10.07;;;15.60;1.00;;;;;;5053882;28;20177;-46
2023/05/04 07:10:56;;;;;;;10.27;9.37;;;15.80;1.00;;;;;;5056758;28;20174;-50
2023/05/04 07:13:23;;;;;;;10.60;9.43;;;16.10;1.00;;;;;;5057787;28;20428;-46
2023/05/04 07:15:49;;;;;;;9.07;8.27;;;16.30;1.00;;;;;;5055930;28;20185;-45
2023/05/04 07:18:14;;;;;;;10.63;9.67;;;16.40;1.00;;;;;;5053679;28;20691;-46
2023/05/04 07:20:43;;;;;;;9.80;8.90;;;16.60;1.00;;;;;;5051421;28;20320;-48
2023/05/04 07:23:09;;;;;;;9.53;8.40;;;16.70;1.00;;;;;;5050453;28;20174;-48
2023/05/04 07:25:34;;;;;;;9.43;8.53;;;16.80;1.00;;;;;;5050211;28;20578;-46
2023/05/04 07:28:00;;;;;;;9.70;8.90;;;16.80;1.00;;;;;;5051292;28;20178;-47
2023/05/04 07:30:26;;;;;;;10.00;9.00;;;17.00;1.00;;;;;;5053338;28;20234;-47
2023/05/04 07:32:51;;;;;;;9.83;8.93;;;17.10;1.00;;;;;;5055017;28;20201;-45
2023/05/04 07:35:17;;;;;;;8.90;8.10;;;17.30;1.00;;;;;;5055177;28;20174;-48
2023/05/04 07:37:43;;;;;;;9.87;8.97;;;17.30;1.00;;;;;;5056449;28;20173;-44
2023/05/04 07:40:10;;;;;;;10.23;9.33;;;17.50;1.00;;;;;;5054273;28;20182;-46
2023/05/04 07:42:36;;;;;;;10.50;9.50;;;17.50;1.00;;;;;;5054953;28;20178;-47
2023/05/04 07:45:01;;;;;;;9.93;9.03;;;17.40;1.00;;;;;;5053352;28;20474;-45
2023/05/04 07:47:27;;;;;;;12.00;9.30;;;17.50;1.00;;;;;;5053612;28;20425;-46
2023/05/04 07:49:53;;;;;;;12.63;10.40;;;17.60;1.00;;;;;;5054490;28;20428;-46
2023/05/04 07:52:18;;;;;;;13.73;9.17;;;17.70;1.00;;;;;;5055865;28;20756;-45
2023/05/04 07:54:44;;;;;;;10.80;9.73;;;17.80;1.00;;;;;;5053913;28;20189;-46
2023/05/04 07:57:10;;;;;;;9.77;8.80;;;18.00;1.00;;;;;;5054535;28;20421;-47
2023/05/04 07:59:35;;;;;;;10.50;9.60;;;18.20;1.00;;;;;;5055242;28;20178;-46
2023/05/04 08:02:01;;;;;;;10.00;9.10;;;18.30;1.00;;;;;;5053508;28;20178;-48
2023/05/04 08:04:27;;;;;;;10.67;9.60;;;18.50;1.00;;;;;;5055010;28;20206;-47
2023/05/04 08:06:53;;;;;;;11.40;10.40;;;18.50;1.00;;;;;;5053672;28;20265;-47
2023/05/04 08:09:18;;;;;;;11.23;10.07;;;18.60;1.00;;;;;;5054439;28;20247;-46
2023/05/04 08:11:45;;;;;;;9.37;8.57;;;18.50;1.00;;;;;;5051917;28;20436;-48
2023/05/04 08:14:10;;;;;;;12.37;9.57;;;18.40;1.00;;;;;;5053509;28;20512;-45
2023/05/04 08:16:38;;;;;;;11.53;8.80;;;18.30;1.00;;;;;;5054403;28;20432;-48
2023/05/04 08:19:04;;;;;;;10.03;9.00;;;18.30;1.00;;;;;;5053011;28;20280;-47
2023/05/04 08:21:30;;;;;;;8.43;7.73;;;18.70;1.00;;;;;;5053792;28;20431;-46
2023/05/04 08:23:56;;;;;;;9.17;8.37;;;19.20;1.00;;;;;;5054319;28;20520;-45
2023/05/04 08:26:22;;;;;;;10.00;9.20;;;19.60;1.00;;;;;;5053853;28;20466;-45
2023/05/04 08:28:48;;;;;;;10.10;9.10;;;19.90;1.00;;;;;;5051646;28;20640;-46
2023/05/04 08:31:14;;;;;;;9.70;8.80;;;19.90;1.00;;;;;;5052251;28;20427;-45
2023/05/04 08:33:40;;;;;;;8.90;8.20;;;19.90;1.00;;;;;;5051522;28;20174;-46
2023/05/04 08:36:07;;;;;;;10.77;9.87;;;20.10;1.00;;;;;;5051539;28;20838;-47
2023/05/04 08:38:33;;;;;;;9.27;8.37;;;20.40;1.00;;;;;;5048699;28;20260;-45
2023/05/04 08:41:06;;;;;;;8.13;7.43;;;20.50;1.00;;;;;;5051479;28;20861;-45
2023/05/04 08:43:35;;;;;;;8.87;8.17;;;20.70;1.00;;;;;;5051642;28;20208;-46
2023/05/04 08:46:02;;;;;;;9.03;7.63;;;20.80;1.00;;;;;;5052059;28;20416;-47
2023/05/04 08:48:28;;;;;;;9.33;8.50;;;21.10;1.00;;;;;;5052996;28;20455;-47
2023/05/04 08:50:54;;;;;;;8.77;8.00;;;21.30;1.00;;;;;;5051812;28;20531;-48
2023/05/04 08:53:21;;;;;;;8.60;7.90;;;21.20;1.00;;;;;;5054529;28;20526;-49
2023/05/04 08:55:48;;;;;;;7.90;7.30;;;21.00;1.00;;;;;;5053986;28;20416;-48
2023/05/04 08:58:16;;;;;;;7.97;7.27;;;21.00;1.00;;;;;;5054544;28;20416;-48
2023/05/04 09:00:42;;;;;;;9.23;8.33;;;21.10;1.00;;;;;;5052839;28;20511;-46
2023/05/04 09:03:12;;;;;;;9.00;8.30;;;21.30;1.00;;;;;;5053605;28;20539;-47
2023/05/04 09:05:41;;;;;;;9.57;8.77;;;21.50;1.00;;;;;;5052674;28;20464;-47
2023/05/04 09:08:07;;;;;;;8.50;7.70;;;21.50;1.00;;;;;;5050538;28;20420;-48
2023/05/04 09:10:33;;;;;;;9.60;8.80;;;21.60;1.00;;;;;;5051603;28;20929;-49
2023/05/04 09:13:00;;;;;;;8.33;7.57;;;21.90;1.00;;;;;;5052477;28;20423;-50
2023/05/04 09:15:26;;;;;;;8.10;7.50;;;22.20;1.00;;;;;;5051451;28;20177;-45
2023/05/04 09:17:59;;;;;;;8.23;7.53;;;22.30;1.00;;;;;;5052164;28;21146;-47
2023/05/04 09:20:25;;;;;;;9.97;9.07;;;22.60;1.00;;;;;;5050933;28;20714;-47
2023/05/04 09:23:07;;;;;;;7.93;7.33;;;22.90;1.00;;;;;;5050656;28;20523;-51
2023/05/04 09:25:47;;;;;;;7.83;7.13;;;23.10;1.00;;;;;;5051986;28;20197;-49
2023/05/04 09:28:14;;;;;;;7.03;6.53;;;23.40;1.00;;;;;;5052771;28;20447;-47
2023/05/04 09:30:39;;;;;;;8.50;7.90;;;23.60;1.00;;;;;;5048839;28;20513;-46
2023/05/04 09:33:05;;;;;;;9.70;8.80;;;23.80;1.00;;;;;;5043244;28;20877;-48
2023/05/04 09:35:31;;;;;;;8.50;7.73;;;23.60;1.00;;;;;;5053061;28;20205;-51
2023/05/04 09:37:57;;;;;;;8.43;7.63;;;23.00;1.00;;;;;;5053362;28;20272;-50
2023/05/04 09:40:34;;;;;;;8.23;7.43;;;23.10;1.00;;;;;;5053020;28;20181;-48
2023/05/04 09:43:00;;;;;;;7.40;6.73;;;23.30;1.00;;;;;;5053775;28;20181;-50
2023/05/04 09:45:27;;;;;;;8.73;7.93;;;23.60;1.00;;;;;;5051633;28;20478;-47
2023/05/04 09:47:54;;;;;;;7.13;6.53;;;23.90;1.00;;;;;;5051103;28;20850;-48
2023/05/04 09:50:22;;;;;;;7.20;6.47;;;24.10;1.00;;;;;;5053326;28;20428;-50
2023/05/04 09:52:48;;;;;;;7.77;7.07;;;24.30;1.00;;;;;;5054416;28;20416;-48
2023/05/04 09:55:17;;;;;;;7.03;6.43;;;24.40;1.00;;;;;;5054927;28;20423;-47
2023/05/04 09:57:44;;;;;;;7.63;7.03;;;24.40;1.00;;;;;;5054377;28;20789;-49
2023/05/04 10:00:11;;;;;;;8.53;7.63;;;24.80;1.00;;;;;;5053140;28;20424;-48
2023/05/04 10:02:38;;;;;;;7.50;6.90;;;24.40;1.00;;;;;;5053623;28;20534;-47
2023/05/04 10:05:10;;;;;;;7.60;6.27;;;24.10;1.00;;;;;;5035230;28;20483;-49
2023/05/04 10:07:37;;;;;;;8.10;7.37;;;24.30;1.00;;;;;;5051576;28;20748;-49
2023/05/04 10:10:06;;;;;;;7.40;6.70;;;24.50;1.00;;;;;;5054097;28;20424;-52
2023/05/04 10:12:32;;;;;;;11.53;7.50;;;24.70;1.00;;;;;;5057314;28;20424;-49
2023/05/04 10:14:59;;;;;;;7.23;6.63;;;24.50;1.00;;;;;;5056439;28;20420;-49
2023/05/04 10:17:46;;;;;;;6.90;6.40;;;24.50;1.00;;;;;;5052652;28;20430;-48
2023/05/04 10:20:31;;;;;;;5.93;5.33;;;24.80;1.00;;;;;;5054965;28;20807;-50
2023/05/04 10:23:15;;;;;;;6.20;5.60;;;24.90;1.00;;;;;;5053947;28;20431;-49
2023/05/04 10:25:56;;;;;;;6.40;5.90;;;25.20;1.00;;;;;;5054994;28;20896;-48
2023/05/04 10:28:25;;;;;;;8.30;6.30;;;25.60;1.00;;;;;;5056188;28;20562;-49
2023/05/04 10:30:56;;;;;;;6.50;5.97;;;25.40;1.00;;;;;;5057671;28;20526;-48
2023/05/04 10:33:23;;;;;;;6.27;5.77;;;25.10;1.00;;;;;;5055751;28;20428;-48
2023/05/04 10:35:52;;;;;;;6.40;5.90;;;24.90;1.00;;;;;;5056341;28;20690;-50
2023/05/04 10:38:18;;;;;;;5.60;5.10;;;24.90;1.00;;;;;;5056146;28;20726;-48
2023/05/04 10:40:47;;;;;;;6.03;5.53;;;25.30;1.00;;;;;;5037573;28;20459;-48
2023/05/04 10:43:24;;;;;;;5.93;5.53;;;25.30;1.00;;;;;;5056255;28;20446;-49
2023/05/04 10:45:50;;;;;;;5.10;4.70;;;25.40;1.00;;;;;;5052985;28;20463;-51
2023/05/04 10:48:16;;;;;;;5.10;4.70;;;25.90;1.00;;;;;;5053716;28;20428;-52
2023/05/04 10:50:44;;;;;;;6.20;5.70;;;26.20;1.00;;;;;;5052241;28;20432;-50
2023/05/04 10:53:10;;;;;;;6.07;5.57;;;25.70;1.00;;;;;;5053394;28;20270;-48
2023/05/04 10:55:41;;;;;;;5.60;5.10;;;25.60;1.00;;;;;;5055658;28;20711;-51
2023/05/04 10:58:09;;;;;;;4.80;4.50;;;25.90;1.00;;;;;;5050571;28;20453;-49
2023/05/04 11:00:37;;;;;;;4.63;4.23;;;26.40;1.00;;;;;;5055847;28;20424;-48
2023/05/04 11:03:04;;;;;;;4.43;4.10;;;27.20;1.00;;;;;;5047558;28;20734;-48
2023/05/04 11:05:40;;;;;;;4.57;4.27;;;27.20;1.00;;;;;;5037383;28;20468;-51
2023/05/04 11:08:23;;;;;;;4.27;3.97;;;26.80;1.00;;;;;;5038646;28;20439;-49
2023/05/04 11:11:01;;;;;;;4.70;4.20;;;26.30;1.00;;;;;;5055141;28;20466;-49
2023/05/04 11:13:32;;;;;;;4.90;4.40;;;26.20;1.00;;;;;;5054325;28;20440;-49
2023/05/04 11:15:59;;;;;;;3.87;3.57;;;26.30;1.00;;;;;;5054779;28;20420;-48
2023/05/04 11:18:29;;;;;;;5.07;4.57;;;26.60;1.00;;;;;;5051092;28;20896;-49
2023/05/04 11:20:55;;;;;;;3.70;3.40;;;26.70;1.00;;;;;;5050904;28;20444;-50
2023/05/04 11:23:21;;;;;;;3.80;3.50;;;26.60;1.00;;;;;;5049905;28;20923;-47
2023/05/04 11:25:47;;;;;;;3.00;2.80;;;26.90;1.00;;;;;;5052930;28;20559;-49
2023/05/04 11:28:13;;;;;;;3.90;3.60;;;27.50;1.00;;;;;;5050973;28;20419;-48
2023/05/04 11:30:40;;;;;;;4.70;4.30;;;28.40;1.00;;;;;;5051980;28;20641;-47
2023/05/04 11:33:13;;;;;;;4.87;4.57;;;28.80;1.00;;;;;;5044854;28;20170;-47
2023/05/04 11:35:41;;;;;;;4.27;3.87;;;29.00;1.00;;;;;;5032756;28;20456;-47
